createdAt,value
2023-03-17T00:01:03.168Z,4.94
2023-03-17T00:03:49.815Z,5.00
2023-03-17T00:06:36.983Z,5.06
2023-03-17T00:09:23.088Z,5.24
2023-03-17T00:12:12.871Z,5.28
2023-03-17T00:14:59.040Z,5.44
2023-03-17T00:17:45.192Z,5.46
2023-03-17T00:20:32.459Z,5.54
2023-03-17T00:23:19.692Z,5.55
2023-03-17T00:26:05.945Z,5.60
2023-03-17T00:28:54.337Z,5.60
2023-03-17T00:31:40.795Z,5.53
2023-03-17T00:34:27.291Z,5.47
2023-03-17T00:37:13.656Z,5.38
2023-03-17T00:40:00.549Z,5.38
2023-03-17T00:42:46.885Z,5.51
2023-03-17T00:45:34.466Z,5.49
2023-03-17T00:48:21.679Z,5.49
2023-03-17T00:51:07.938Z,5.49
2023-03-17T00:53:53.762Z,5.44
2023-03-17T00:56:40.124Z,5.39
2023-03-17T00:59:27.448Z,5.38
2023-03-17T01:02:14.885Z,5.32
2023-03-17T01:05:06.409Z,5.24
2023-03-17T01:07:54.127Z,5.23
2023-03-17T01:10:40.024Z,5.15
2023-03-17T01:13:26.153Z,5.07
2023-03-17T01:16:13.572Z,5.04
2023-03-17T01:19:01.346Z,4.97
2023-03-17T01:21:47.957Z,4.90
2023-03-17T01:24:34.142Z,4.84
2023-03-17T01:27:20.116Z,4.78
2023-03-17T01:30:06.326Z,4.74
2023-03-17T01:32:52.628Z,4.79
2023-03-17T01:35:40.287Z,4.89
2023-03-17T01:38:26.150Z,4.99
2023-03-17T01:41:12.583Z,5.07
2023-03-17T01:43:59.237Z,5.11
2023-03-17T01:46:45.416Z,5.21
2023-03-17T01:49:31.883Z,5.26
2023-03-17T01:52:19.296Z,5.38
2023-03-17T01:55:06.865Z,5.46
2023-03-17T01:57:53.588Z,5.46
2023-03-17T02:00:40.592Z,5.46
2023-03-17T02:03:28.375Z,5.39
2023-03-17T02:06:14.760Z,5.38
2023-03-17T02:09:02.206Z,5.32
2023-03-17T02:11:49.087Z,5.28
2023-03-17T02:14:36.371Z,5.18
2023-03-17T02:17:22.919Z,5.10
2023-03-17T02:20:28.035Z,5.19
2023-03-17T02:23:15.662Z,5.16
2023-03-17T02:26:01.588Z,5.13
2023-03-17T02:28:48.131Z,5.06
2023-03-17T02:31:34.807Z,5.02
2023-03-17T02:34:21.122Z,5.09
2023-03-17T02:37:07.691Z,5.22
2023-03-17T02:39:55.129Z,5.46
2023-03-17T02:42:41.197Z,5.49
2023-03-17T02:45:27.503Z,5.60
2023-03-17T02:48:13.544Z,5.74
2023-03-17T02:50:59.468Z,5.86
2023-03-17T02:53:45.796Z,5.94
2023-03-17T02:56:33.231Z,6.11
2023-03-17T02:59:19.046Z,6.18
2023-03-17T03:02:05.627Z,6.23
2023-03-17T03:04:51.920Z,6.26
2023-03-17T03:07:38.177Z,6.32
2023-03-17T03:10:24.067Z,6.39
2023-03-17T03:13:11.769Z,6.29
2023-03-17T03:15:57.937Z,6.27
2023-03-17T03:18:43.684Z,6.22
2023-03-17T03:21:29.520Z,6.20
2023-03-17T03:24:15.827Z,6.26
2023-03-17T03:27:01.846Z,6.29
2023-03-17T03:29:49.279Z,6.29
2023-03-17T03:32:35.343Z,6.38
2023-03-17T03:35:21.766Z,6.35
2023-03-17T03:38:07.488Z,6.33
2023-03-17T03:40:53.586Z,6.38
2023-03-17T03:43:39.493Z,6.36
2023-03-17T03:46:27.569Z,6.39
2023-03-17T03:49:13.794Z,6.34
2023-03-17T03:51:59.522Z,6.31
2023-03-17T03:54:45.373Z,6.28
2023-03-17T03:57:31.331Z,6.22
2023-03-17T04:00:17.655Z,6.13
2023-03-17T04:03:05.196Z,5.94
2023-03-17T04:05:51.369Z,5.86
2023-03-17T04:08:37.529Z,5.79
2023-03-17T04:11:23.560Z,5.71
2023-03-17T04:14:09.399Z,5.60
2023-03-17T04:16:55.702Z,5.50
2023-03-17T04:19:43.257Z,5.35
2023-03-17T04:22:29.022Z,5.35
2023-03-17T04:25:15.623Z,5.28
2023-03-17T04:28:01.753Z,5.20
2023-03-17T04:30:47.969Z,5.07
2023-03-17T04:33:34.108Z,4.99
2023-03-17T04:36:21.799Z,4.89
2023-03-17T04:39:08.226Z,4.79
2023-03-17T04:41:54.103Z,4.72
2023-03-17T04:44:40.151Z,4.63
2023-03-17T04:47:26.051Z,4.57
2023-03-17T04:50:12.812Z,4.49
2023-03-17T04:53:00.225Z,4.39
2023-03-17T04:55:47.127Z,4.29
2023-03-17T04:58:32.980Z,4.19
2023-03-17T05:01:18.966Z,4.15
2023-03-17T05:04:05.159Z,4.06
2023-03-17T05:06:51.830Z,3.96
2023-03-17T05:09:39.020Z,3.97
2023-03-17T05:12:24.882Z,4.01
2023-03-17T05:15:11.639Z,4.21
2023-03-17T05:17:57.572Z,4.38
2023-03-17T05:20:43.719Z,4.45
2023-03-17T05:23:29.847Z,4.64
2023-03-17T05:26:17.190Z,4.76
2023-03-17T05:29:03.322Z,5.02
2023-03-17T05:31:52.177Z,5.02
2023-03-17T05:34:38.082Z,5.14
2023-03-17T05:37:24.027Z,5.20
2023-03-17T05:40:11.043Z,5.20
2023-03-17T05:42:58.515Z,5.06
2023-03-17T05:45:45.026Z,4.90
2023-03-17T05:48:31.480Z,4.77
2023-03-17T05:51:17.664Z,4.71
2023-03-17T05:54:03.872Z,4.70
2023-03-17T05:56:49.822Z,4.80
2023-03-17T05:59:36.954Z,4.79
2023-03-17T06:02:23.059Z,4.92
2023-03-17T06:05:09.770Z,5.08
2023-03-17T06:07:56.561Z,5.27
2023-03-17T06:10:43.124Z,5.36
2023-03-17T06:13:29.049Z,5.43
2023-03-17T06:16:16.934Z,5.43
2023-03-17T06:19:03.233Z,5.44
2023-03-17T06:21:49.274Z,5.41
2023-03-17T06:24:35.379Z,5.37
2023-03-17T06:27:21.597Z,5.31
2023-03-17T06:30:08.218Z,5.24
2023-03-17T06:32:56.641Z,5.18
2023-03-17T06:35:42.565Z,5.14
2023-03-17T06:38:28.939Z,5.18
2023-03-17T06:41:14.876Z,5.15
2023-03-17T06:44:01.374Z,5.20
2023-03-17T06:46:47.706Z,5.33
2023-03-17T06:49:35.009Z,5.52
2023-03-17T06:52:21.214Z,5.59
2023-03-17T06:55:08.603Z,5.70
2023-03-17T06:57:57.808Z,5.80
2023-03-17T07:00:45.441Z,5.85
2023-03-17T07:03:32.578Z,5.98
2023-03-17T07:06:20.053Z,6.06
2023-03-17T07:09:07.561Z,6.32
2023-03-17T07:11:53.981Z,6.42
2023-03-17T07:14:40.431Z,6.48
2023-03-17T07:17:26.248Z,6.54
2023-03-17T07:20:13.792Z,6.64
2023-03-17T07:23:01.276Z,6.75
2023-03-17T07:25:47.972Z,6.85
2023-03-17T07:28:33.888Z,6.95
2023-03-17T07:31:19.632Z,7.02
2023-03-17T07:34:06.514Z,7.13
2023-03-17T07:36:52.654Z,7.15
2023-03-17T07:39:40.217Z,7.22
2023-03-17T07:42:28.838Z,7.30
2023-03-17T07:45:14.805Z,7.39
2023-03-17T07:48:01.238Z,7.54
2023-03-17T07:50:47.518Z,7.71
2023-03-17T07:53:33.327Z,7.91
2023-03-17T07:56:21.343Z,8.07
2023-03-17T07:59:07.561Z,8.22
2023-03-17T08:01:53.564Z,8.36
2023-03-17T08:04:39.587Z,8.52
2023-03-17T08:07:25.760Z,8.69
2023-03-17T08:10:12.894Z,8.83
2023-03-17T08:13:00.795Z,8.96
2023-03-17T08:15:47.037Z,9.08
2023-03-17T08:18:34.016Z,9.23
2023-03-17T08:21:20.213Z,9.37
2023-03-17T08:24:06.521Z,9.49
2023-03-17T08:26:52.531Z,9.58
2023-03-17T08:29:40.269Z,9.68
2023-03-17T08:32:26.515Z,9.78
2023-03-17T08:35:15.880Z,9.90
2023-03-17T08:38:02.388Z,10.03
2023-03-17T08:40:50.477Z,10.17
2023-03-17T08:43:38.210Z,10.29
2023-03-17T08:46:26.989Z,10.44
2023-03-17T08:49:13.529Z,10.56
2023-03-17T08:51:59.615Z,10.67
2023-03-17T08:54:45.880Z,10.68
2023-03-17T08:57:32.061Z,10.80
2023-03-17T09:00:20.338Z,10.90
2023-03-17T09:03:08.467Z,11.06
2023-03-17T09:05:54.685Z,11.32
2023-03-17T09:08:44.439Z,11.46
2023-03-17T09:11:31.463Z,11.74
2023-03-17T09:14:17.372Z,11.99
2023-03-17T09:17:05.783Z,12.18
2023-03-17T09:19:53.384Z,12.44
2023-03-17T09:22:39.262Z,12.72
2023-03-17T09:25:26.028Z,13.06
2023-03-17T09:28:12.344Z,13.25
2023-03-17T09:30:58.894Z,13.52
2023-03-17T09:33:44.697Z,13.56
2023-03-17T09:36:32.365Z,13.79
2023-03-17T09:39:18.953Z,13.88
2023-03-17T09:42:23.109Z,13.96
2023-03-17T09:45:13.907Z,14.07
2023-03-17T09:48:06.056Z,14.36
2023-03-17T09:50:52.737Z,14.56
2023-03-17T09:53:41.421Z,14.68
2023-03-17T09:56:28.454Z,14.78
2023-03-17T09:59:20.863Z,15.08
2023-03-17T10:02:08.312Z,15.19
2023-03-17T10:04:54.959Z,15.24
2023-03-17T10:07:42.838Z,15.40
2023-03-17T10:10:31.184Z,15.91
2023-03-17T10:13:21.670Z,16.04
2023-03-17T10:16:09.711Z,16.54
2023-03-17T10:18:56.484Z,16.61
2023-03-17T10:21:44.927Z,16.68
2023-03-17T10:24:31.530Z,16.96
2023-03-17T10:27:18.986Z,17.14
2023-03-17T10:30:05.495Z,17.20
2023-03-17T10:32:52.290Z,16.72
2023-03-17T10:35:39.450Z,16.48
2023-03-17T10:38:25.585Z,16.22
2023-03-17T10:41:14.734Z,15.98
2023-03-17T10:44:01.753Z,16.09
2023-03-17T10:46:48.413Z,16.36
2023-03-17T10:49:35.967Z,16.24
2023-03-17T10:52:23.240Z,16.40
2023-03-17T10:55:10.536Z,16.83
2023-03-17T10:58:00.865Z,16.92
2023-03-17T11:00:52.350Z,17.35
2023-03-17T11:03:39.489Z,17.33
2023-03-17T11:06:32.617Z,17.42
2023-03-17T11:09:18.413Z,17.57
2023-03-17T11:12:05.782Z,17.40
2023-03-17T11:14:51.675Z,17.64
2023-03-17T11:17:43.812Z,17.56
2023-03-17T11:20:36.046Z,17.59
2023-03-17T11:23:27.611Z,17.42
2023-03-17T11:26:17.756Z,17.53
2023-03-17T11:29:11.413Z,17.71
2023-03-17T11:31:59.204Z,17.69
2023-03-17T11:34:52.495Z,17.71
2023-03-17T11:37:43.657Z,17.98
2023-03-17T11:40:31.831Z,17.91
2023-03-17T11:43:23.590Z,17.97
2023-03-17T11:46:10.213Z,17.53
2023-03-17T11:48:57.380Z,17.81
2023-03-17T11:51:49.512Z,17.86
2023-03-17T11:54:37.698Z,17.98
2023-03-17T11:57:24.430Z,18.16
2023-03-17T12:00:17.112Z,17.92
2023-03-17T12:03:08.461Z,18.08
2023-03-17T12:05:55.651Z,18.06
2023-03-17T12:08:45.798Z,18.22
2023-03-17T12:11:32.920Z,18.31
2023-03-17T12:14:22.582Z,18.26
2023-03-17T12:17:10.707Z,17.88
2023-03-17T12:20:05.460Z,17.86
2023-03-17T12:22:55.906Z,17.94
2023-03-17T12:25:46.203Z,17.97
2023-03-17T12:28:33.906Z,17.80
2023-03-17T12:31:20.818Z,17.79
2023-03-17T12:34:07.826Z,17.61
2023-03-17T12:36:53.680Z,17.90
2023-03-17T12:39:40.476Z,17.65
2023-03-17T12:42:30.739Z,17.82
2023-03-17T12:45:30.305Z,17.61
2023-03-17T12:48:21.946Z,17.86
2023-03-17T12:51:10.733Z,18.02
2023-03-17T12:53:57.002Z,18.15
2023-03-17T12:56:44.916Z,18.21
2023-03-17T12:59:34.017Z,18.11
2023-03-17T13:02:23.520Z,18.16
2023-03-17T13:05:10.100Z,18.08
2023-03-17T13:07:56.721Z,18.07
2023-03-17T13:10:43.278Z,17.93
2023-03-17T13:13:42.548Z,18.01
2023-03-17T13:16:34.078Z,18.00
2023-03-17T13:19:21.143Z,18.03
2023-03-17T13:22:26.388Z,17.85
2023-03-17T13:25:14.055Z,17.77
2023-03-17T13:28:17.670Z,17.80
2023-03-17T13:31:10.035Z,17.71
2023-03-17T13:33:58.245Z,17.74
2023-03-17T13:36:55.880Z,17.75
2023-03-17T13:40:00.722Z,17.63
2023-03-17T13:42:54.660Z,17.61
2023-03-17T13:45:41.628Z,17.58
2023-03-17T13:48:33.999Z,17.48
2023-03-17T13:51:21.954Z,17.52
2023-03-17T13:54:08.868Z,17.44
2023-03-17T13:56:55.245Z,17.30
2023-03-17T13:59:54.047Z,17.37
2023-03-17T14:02:40.150Z,17.37
2023-03-17T14:05:26.769Z,17.24
2023-03-17T14:08:16.521Z,17.11
2023-03-17T14:11:03.398Z,17.01
2023-03-17T14:13:50.579Z,17.09
2023-03-17T14:16:37.504Z,17.07
2023-03-17T14:19:26.927Z,17.12
2023-03-17T14:22:20.277Z,17.03
2023-03-17T14:25:08.773Z,17.02
2023-03-17T14:27:56.085Z,16.91
2023-03-17T14:30:42.060Z,16.84
2023-03-17T14:33:28.779Z,16.95
2023-03-17T14:36:14.934Z,16.86
2023-03-17T14:39:00.862Z,16.87
2023-03-17T14:41:48.003Z,16.92
2023-03-17T14:44:37.823Z,16.96
2023-03-17T14:47:24.652Z,16.96
2023-03-17T14:50:14.584Z,16.94
2023-03-17T14:53:00.800Z,16.89
2023-03-17T14:55:46.846Z,16.84
2023-03-17T14:58:38.864Z,16.89
2023-03-17T15:01:33.598Z,16.89
2023-03-17T15:04:21.157Z,16.87
2023-03-17T15:07:07.499Z,16.81
2023-03-17T15:09:58.337Z,16.80
2023-03-17T15:12:46.139Z,16.77
2023-03-17T15:15:33.891Z,16.79
2023-03-17T15:18:20.212Z,16.72
2023-03-17T15:21:06.487Z,16.73
2023-03-17T15:23:52.575Z,16.77
2023-03-17T15:26:38.803Z,16.63
2023-03-17T15:29:24.507Z,16.60
2023-03-17T15:32:13.127Z,16.55
2023-03-17T15:34:59.266Z,16.36
2023-03-17T15:37:45.847Z,16.40
2023-03-17T15:40:32.521Z,16.33
2023-03-17T15:43:21.484Z,16.42
2023-03-17T15:46:08.357Z,16.36
2023-03-17T15:48:55.855Z,16.24
2023-03-17T15:51:42.091Z,16.28
2023-03-17T15:54:28.288Z,16.12
2023-03-17T15:57:14.388Z,16.20
2023-03-17T16:00:00.400Z,16.11
2023-03-17T16:02:47.759Z,15.96
2023-03-17T16:05:35.242Z,15.93
2023-03-17T16:08:21.815Z,15.83
2023-03-17T16:11:12.898Z,15.79
2023-03-17T16:13:59.693Z,15.74
2023-03-17T16:16:46.112Z,15.64
2023-03-17T16:19:32.365Z,15.52
2023-03-17T16:22:34.772Z,15.43
2023-03-17T16:25:22.776Z,15.35
2023-03-17T16:28:13.344Z,15.22
2023-03-17T16:31:00.208Z,15.14
2023-03-17T16:33:46.905Z,15.04
2023-03-17T16:36:32.797Z,15.02
2023-03-17T16:39:21.134Z,14.99
2023-03-17T16:42:07.279Z,14.86
2023-03-17T16:44:53.029Z,14.80
2023-03-17T16:47:38.824Z,14.71
2023-03-17T16:50:26.058Z,14.64
2023-03-17T16:53:12.193Z,14.57
2023-03-17T16:55:59.943Z,14.53
2023-03-17T16:58:46.608Z,14.44
2023-03-17T17:01:32.605Z,14.37
2023-03-17T17:04:18.433Z,14.35
2023-03-17T17:07:04.245Z,14.27
2023-03-17T17:09:50.189Z,14.26
2023-03-17T17:12:37.588Z,14.20
2023-03-17T17:15:23.675Z,14.17
2023-03-17T17:18:12.550Z,14.15
2023-03-17T17:20:58.287Z,14.04
2023-03-17T17:23:44.253Z,13.88
2023-03-17T17:26:30.109Z,13.77
2023-03-17T17:29:17.418Z,13.64
2023-03-17T17:32:03.397Z,13.51
2023-03-17T17:34:49.473Z,13.38
2023-03-17T17:37:35.888Z,13.29
2023-03-17T17:40:24.355Z,13.18
2023-03-17T17:43:10.565Z,13.05
2023-03-17T17:45:57.843Z,13.04
2023-03-17T17:48:43.958Z,12.95
2023-03-17T17:51:31.603Z,12.90
2023-03-17T17:54:17.428Z,12.83
2023-03-17T17:57:03.539Z,12.83
2023-03-17T17:59:49.676Z,12.78
2023-03-17T18:02:37.949Z,12.79
2023-03-17T18:05:23.851Z,12.77
2023-03-17T18:08:09.954Z,12.81
2023-03-17T18:10:57.178Z,12.84
2023-03-17T18:13:42.915Z,12.89
2023-03-17T18:16:29.491Z,12.95
2023-03-17T18:19:17.282Z,12.90
2023-03-17T18:22:04.295Z,12.89
2023-03-17T18:24:50.232Z,12.79
2023-03-17T18:27:36.273Z,12.79
2023-03-17T18:30:23.333Z,12.74
2023-03-17T18:33:10.518Z,12.68
2023-03-17T18:35:58.137Z,12.61
2023-03-17T18:38:43.963Z,12.53
2023-03-17T18:41:30.035Z,12.46
2023-03-17T18:44:16.238Z,12.39
2023-03-17T18:47:02.475Z,12.33
2023-03-17T18:49:48.607Z,12.35
2023-03-17T18:52:36.802Z,12.37
2023-03-17T18:55:22.910Z,12.32
2023-03-17T18:58:08.930Z,12.32
2023-03-17T19:00:58.138Z,12.33
2023-03-17T19:03:44.098Z,12.32
2023-03-17T19:06:30.131Z,12.32
2023-03-17T19:09:17.558Z,12.30
2023-03-17T19:12:03.518Z,12.27
2023-03-17T19:14:49.464Z,12.27
2023-03-17T19:17:37.112Z,12.21
2023-03-17T19:20:23.206Z,12.18
2023-03-17T19:23:09.398Z,12.18
2023-03-17T19:25:56.572Z,12.16
2023-03-17T19:28:42.359Z,12.23
2023-03-17T19:31:28.478Z,12.30
2023-03-17T19:34:15.308Z,12.35
2023-03-17T19:37:03.496Z,12.40
2023-03-17T19:39:49.588Z,12.44
2023-03-17T19:42:36.923Z,12.49
2023-03-17T19:45:23.945Z,12.51
2023-03-17T19:48:09.776Z,12.50
2023-03-17T19:50:56.487Z,12.52
2023-03-17T19:53:42.361Z,12.50
2023-03-17T19:56:28.189Z,12.48
2023-03-17T19:59:15.784Z,12.46
2023-03-17T20:02:02.068Z,12.35
2023-03-17T20:04:48.915Z,12.29
2023-03-17T20:07:35.773Z,12.25
2023-03-17T20:10:22.068Z,12.17
2023-03-17T20:13:08.492Z,12.14
2023-03-17T20:15:56.072Z,11.98
2023-03-17T20:18:42.406Z,11.93
2023-03-17T20:21:28.647Z,11.84
2023-03-17T20:24:14.598Z,11.80
2023-03-17T20:27:00.630Z,11.69
2023-03-17T20:29:48.377Z,11.61
2023-03-17T20:32:36.074Z,11.59
2023-03-17T20:35:21.760Z,11.52
2023-03-17T20:38:08.197Z,11.43
2023-03-17T20:40:54.198Z,11.37
2023-03-17T20:43:40.668Z,11.31
2023-03-17T20:46:26.955Z,11.27
2023-03-17T20:49:14.204Z,11.19
2023-03-17T20:52:00.118Z,11.18
2023-03-17T20:54:46.247Z,11.09
2023-03-17T20:57:32.628Z,11.03
2023-03-17T21:00:20.070Z,10.97
2023-03-17T21:03:06.282Z,10.88
2023-03-17T21:05:53.398Z,10.80
2023-03-17T21:08:39.312Z,10.74
2023-03-17T21:11:26.564Z,10.71
2023-03-17T21:14:13.381Z,10.72
2023-03-17T21:17:00.548Z,10.71
2023-03-17T21:19:47.330Z,10.68
2023-03-17T21:22:36.182Z,10.61
2023-03-17T21:25:22.112Z,10.50
2023-03-17T21:28:08.051Z,10.48
2023-03-17T21:30:54.449Z,10.44
2023-03-17T21:33:41.823Z,10.38
2023-03-17T21:36:28.693Z,10.31
2023-03-17T21:39:16.563Z,10.27
2023-03-17T21:42:02.381Z,10.20
2023-03-17T21:44:48.292Z,10.17
2023-03-17T21:47:36.182Z,10.09
2023-03-17T21:50:22.427Z,10.09
2023-03-17T21:53:09.182Z,10.05
2023-03-17T21:55:56.580Z,10.04
2023-03-17T21:58:42.632Z,10.00
2023-03-17T22:01:28.519Z,9.96
2023-03-17T22:04:15.598Z,9.93
2023-03-17T22:07:04.302Z,9.90
2023-03-17T22:09:50.720Z,9.87
2023-03-17T22:12:38.427Z,9.84
2023-03-17T22:15:24.406Z,9.78
2023-03-17T22:18:10.574Z,9.75
2023-03-17T22:20:57.462Z,9.72
2023-03-17T22:23:44.269Z,9.68
2023-03-17T22:26:30.356Z,9.64
2023-03-17T22:29:17.787Z,9.61
2023-03-17T22:32:04.021Z,9.58
2023-03-17T22:34:50.238Z,9.55
2023-03-17T22:37:36.250Z,9.52
2023-03-17T22:40:22.471Z,9.49
2023-03-17T22:43:11.814Z,9.46
2023-03-17T22:46:08.726Z,9.43
2023-03-17T22:49:11.706Z,9.41
2023-03-17T22:51:59.241Z,9.39
2023-03-17T22:54:54.274Z,9.35
2023-03-17T22:57:40.302Z,9.33
2023-03-17T23:00:28.858Z,9.33
2023-03-17T23:03:20.174Z,9.29
2023-03-17T23:06:14.800Z,9.31
2023-03-17T23:09:14.783Z,9.36
2023-03-17T23:12:03.965Z,9.38
2023-03-17T23:14:59.956Z,9.37
2023-03-17T23:18:00.986Z,9.38
2023-03-17T23:20:55.686Z,9.39
2023-03-17T23:23:47.862Z,9.35
2023-03-17T23:26:59.482Z,9.35
2023-03-17T23:29:47.763Z,9.31
2023-03-17T23:32:34.073Z,9.33
2023-03-17T23:35:20.602Z,9.33
2023-03-17T23:38:08.620Z,9.33
2023-03-17T23:40:56.187Z,9.32
2023-03-17T23:43:42.379Z,9.30
2023-03-17T23:46:28.939Z,9.29
2023-03-17T23:49:15.592Z,9.24
2023-03-17T23:52:01.676Z,9.26
2023-03-17T23:54:48.781Z,9.23
2023-03-17T23:57:34.727Z,9.21
